Terminal Aerodrome Forecast
Issued by NWS

Home | Current Version | Previous Version | Text Only | Print | Product List | Glossary Off
Versions: 1 2 3 4 5 6 7 8 9 10 11 12 13 14 15 16 17

972
FTUS43 KMPX 242026 AAA
TAFRNH
TAF AMD
KRNH 242026Z 2420/2518 01016G25KT 6SM -SHSN BR SCT015 OVC035
      TEMPO 2420/2424 4SM -SN BR BKN015
     FM250000 36014G23KT 6SM -SN OVC030
     FM250200 35014G23KT P6SM OVC040
     FM250900 33012KT P6SM OVC050
     FM251400 32012KT P6SM SCT150=

USA.gov is the U.S. government's official web portal to all federal, state and local government web resources and services.